地図

経路データ

SID SEASON NUMBER BASIN SUBBASIN NAME ISO_TIME NATURE LAT LON WMO_WIND WMO_PRES WMO_AGENCY TRACK_TYPE DIST2LAND LANDFALL IFLAG USA_AGENCY USA_ATCF_ID USA_LAT USA_LON USA_RECORD USA_STATUS USA_WIND USA_PRES USA_SSHS USA_R34_NE USA_R34_SE USA_R34_SW USA_R34_NW USA_R50_NE USA_R50_SE USA_R50_SW USA_R50_NW USA_R64_NE USA_R64_SE USA_R64_SW USA_R64_NW USA_POCI USA_ROCI USA_RMW USA_EYE TOKYO_LAT TOKYO_LON TOKYO_GRADE TOKYO_WIND TOKYO_PRES TOKYO_R50_DIR TOKYO_R50_LONG TOKYO_R50_SHORT TOKYO_R30_DIR TOKYO_R30_LONG TOKYO_R30_SHORT TOKYO_LAND CMA_LAT CMA_LON CMA_CAT CMA_WIND CMA_PRES HKO_LAT HKO_LON HKO_CAT HKO_WIND HKO_PRES NEWDELHI_LAT NEWDELHI_LON NEWDELHI_GRADE NEWDELHI_WIND NEWDELHI_PRES NEWDELHI_CI NEWDELHI_DP NEWDELHI_POCI REUNION_LAT REUNION_LON REUNION_TYPE REUNION_WIND REUNION_PRES REUNION_TNUM REUNION_CI REUNION_RMW REUNION_R34_NE REUNION_R34_SE REUNION_R34_SW REUNION_R34_NW REUNION_R50_NE REUNION_R50_SE REUNION_R50_SW REUNION_R50_NW REUNION_R64_NE REUNION_R64_SE REUNION_R64_SW REUNION_R64_NW BOM_LAT BOM_LON BOM_TYPE BOM_WIND BOM_PRES BOM_TNUM BOM_CI BOM_RMW BOM_R34_NE BOM_R34_SE BOM_R34_SW BOM_R34_NW BOM_R50_NE BOM_R50_SE BOM_R50_SW BOM_R50_NW BOM_R64_NE BOM_R64_SE BOM_R64_SW BOM_R64_NW BOM_ROCI BOM_POCI BOM_EYE BOM_POS_METHOD BOM_PRES_METHOD NADI_LAT NADI_LON NADI_CAT NADI_WIND NADI_PRES WELLINGTON_LAT WELLINGTON_LON WELLINGTON_WIND WELLINGTON_PRES DS824_LAT DS824_LON DS824_STAGE DS824_WIND DS824_PRES TD9636_LAT TD9636_LON TD9636_STAGE TD9636_WIND TD9636_PRES TD9635_LAT TD9635_LON TD9635_WIND TD9635_PRES TD9635_ROCI NEUMANN_LAT NEUMANN_LON NEUMANN_CLASS NEUMANN_WIND NEUMANN_PRES MLC_LAT MLC_LON MLC_CLASS MLC_WIND MLC_PRES USA_GUST BOM_GUST BOM_GUST_PER REUNION_GUST REUNION_GUST_PER USA_SEAHGT USA_SEARAD_NE USA_SEARAD_SE USA_SEARAD_SW USA_SEARAD_NW STORM_SPEED STORM_DIR
1971324N06112 1971 153 WP MM NOT_NAMED 1971-11-20 00:00:00 TS 6.20000 111.500 main 329 324 __O___________ -1 6.20000 111.500 0 19 1010 3 211
1971324N06112 1971 153 WP MM NOT_NAMED 1971-11-20 03:00:00 TS 6.05250 111.408 main 333 328 __P___________ -1 6.05250 111.408 0 19 1010 4 213
1971324N06112 1971 153 WP MM NOT_NAMED 1971-11-20 06:00:00 TS 5.90000 111.300 main 331 323 __O___________ -1 5.90000 111.300 0 19 1010 4 218
1971324N06112 1971 153 WP MM NOT_NAMED 1971-11-20 09:00:00 TS 5.74249 111.165 main 323 316 __P___________ -1 5.74249 111.165 0 21 1009 4 225
1971324N06112 1971 153 WP MM NOT_NAMED 1971-11-20 12:00:00 TS 5.60000 111.000 main 318 309 __O___________ -1 5.60000 111.000 1 23 1008 4 235
1971324N06112 1971 153 WP MM NOT_NAMED 1971-11-20 15:00:00 TS 5.48501 110.800 main 312 290 __P___________ -1 5.48501 110.800 1 23 1008 4 243
1971324N06112 1971 153 WP MM NOT_NAMED 1971-11-20 18:00:00 TS 5.40000 110.600 main 290 274 __O___________ -1 5.40000 110.600 1 23 1008 4 244
1971324N06112 1971 153 WP MM NOT_NAMED 1971-11-20 21:00:00 TS 5.31998 110.457 main 274 256 __P___________ -1 5.31998 110.457 1 23 1008 3 251
1971324N06112 1971 153 WP MM NOT_NAMED 1971-11-21 00:00:00 TS 5.30000 110.300 main 256 229 __O___________ -1 5.30000 110.300 1 23 1008 4 274
1971324N06112 1971 153 WP MM NOT_NAMED 1971-11-21 03:00:00 TS 5.34753 110.035 main 229 228 __P___________ -1 5.34753 110.035 1 23 1008 5 292
1971324N06112 1971 153 WP MM NOT_NAMED 1971-11-21 06:00:00 TS 5.50000 109.800 main 228 228 __O___________ -1 5.50000 109.800 1 23 1008 5 322
1971324N06112 1971 153 WP MM NOT_NAMED 1971-11-21 09:00:00 TS 5.76998 109.698 main 245 245 __P___________ -1 5.76998 109.698 1 26 1007 6 351
1971324N06112 1971 153 WP MM NOT_NAMED 1971-11-21 12:00:00 TS 6.10000 109.700 main 272 272 __O___________ -1 6.10000 109.700 1 29 1006 7 6
1971324N06112 1971 153 WP MM NOT_NAMED 1971-11-21 15:00:00 TS 6.41499 109.762 main 306 306 __P___________ -1 6.41499 109.762 1 29 1006 6 18
1971324N06112 1971 153 WP MM NOT_NAMED 1971-11-21 18:00:00 TS 6.70000 109.900 main 341 341 __O___________ -1 6.70000 109.900 1 29 1006 6 34
1971324N06112 1971 153 WP MM NOT_NAMED 1971-11-21 21:00:00 TS 6.90752 110.093 main 371 371 __P___________ -1 6.90752 110.093 1 29 1006 6 45
1971324N06112 1971 153 WP MM NOT_NAMED 1971-11-22 00:00:00 TS 7.10000 110.300 main 402 402 __O___________ -1 7.10000 110.300 1 29 1006 6 39
1971324N06112 1971 153 WP MM NOT_NAMED 1971-11-22 03:00:00 TS 7.35749 110.458 main 442 442 __P___________ -1 7.35749 110.458 1 29 1006 6 31
1971324N06112 1971 153 WP MM NOT_NAMED 1971-11-22 06:00:00 TS 7.60000 110.600 main 447 438 __O___________ -1 7.60000 110.600 1 29 1006 5 36
1971324N06112 1971 153 WP MM NOT_NAMED 1971-11-22 09:00:00 TS 7.75749 110.750 main 442 440 __P___________ -1 7.75749 110.750 1 29 1006 4 44
1971324N06112 1971 153 WP MM NOT_NAMED 1971-11-22 12:00:00 TS 7.90000 110.900 main 440 429 __O___________ -1 7.90000 110.900 1 29 1006 5 42
1971324N06112 1971 153 WP MM NOT_NAMED 1971-11-22 15:00:00 TS 8.09250 111.058 main 435 422 __P___________ -1 8.09250 111.058 1 29 1006 5 36
1971324N06112 1971 153 WP MM NOT_NAMED 1971-11-22 18:00:00 TS 8.30000 111.200 main 422 411 __O___________ -1 8.30000 111.200 1 29 1006 5 31
1971324N06112 1971 153 WP MM NOT_NAMED 1971-11-22 21:00:00 TS 8.50749 111.315 main 411 400 __P___________ -1 8.50749 111.315 1 26 1006 4 26
1971324N06112 1971 153 WP MM NOT_NAMED 1971-11-23 00:00:00 TS 8.70000 111.400 main 400 392 __O___________ -1 8.70000 111.400 1 23 1006 4 24
1971324N06112 1971 153 WP MM NOT_NAMED 1971-11-23 03:00:00 TS 8.85000 111.473 main 391 383 __P___________ -1 8.85000 111.473 1 23 1006 3 17
1971324N06112 1971 153 WP MM NOT_NAMED 1971-11-23 06:00:00 TS 9.00000 111.500 main 383 368 __O___________ -1 9.00000 111.500 1 23 1006 4 356
1971324N06112 1971 153 WP MM NOT_NAMED 1971-11-23 09:00:00 TS 9.20750 111.465 main 368 345 __P___________ -1 9.20750 111.465 1 23 1006 4 347
1971324N06112 1971 153 WP MM NOT_NAMED 1971-11-23 12:00:00 TS 9.40000 111.400 main 345 338 __O___________ -1 9.40000 111.400 1 23 1006 3 343
1971324N06112 1971 153 WP MM NOT_NAMED 1971-11-23 15:00:00 TS 9.52249 111.365 main 338 322 __P___________ -1 9.52249 111.365 1 21 1007 2 333
1971324N06112 1971 153 WP MM NOT_NAMED 1971-11-23 18:00:00 TS 9.60000 111.300 main 322 306 __O___________ -1 9.60000 111.300 0 19 1008 3 311
1971324N06112 1971 153 WP MM NOT_NAMED 1971-11-23 21:00:00 TS 9.68750 111.173 main 306 290 __P___________ -1 9.68750 111.173 0 19 1008 3 289
1971324N06112 1971 153 WP MM NOT_NAMED 1971-11-24 00:00:00 TS 9.70000 111.000 main 290 281 __O___________ -1 9.70000 111.000 0 19 1008 4 254
1971324N06112 1971 153 WP MM NOT_NAMED 1971-11-24 03:00:00 TS 9.58003 110.785 main 281 274 __P___________ -1 9.58003 110.785 0 19 1008 5 233
1971324N06112 1971 153 WP MM NOT_NAMED 1971-11-24 06:00:00 TS 9.40000 110.600 main 284 284 __O___________ -1 9.40000 110.600 0 19 1008 4 218
1971324N06112 1971 153 WP MM NOT_NAMED 1971-11-24 09:00:00 TS 9.23998 110.518 main 296 296 __P___________ -1 9.23998 110.518 0 19 1008 3 197
1971324N06112 1971 153 WP MM NOT_NAMED 1971-11-24 12:00:00 TS 9.10000 110.500 main 305 __O___________ -1 9.10000 110.500 0 19 1008 3 191

デジタル台風データ・検索

IBTrACS Databaseについて

本データベースは、米国NOAAが公開する1842年以降の世界の熱帯低気圧のベストトラックデータアーカイブInternational Best Track Archive for Climate Stewardship (IBTrACS)を、ウェブで閲覧しやすい形式に変換したものです。

最終更新日:2021-10-08